createdAt,value
2022-11-10T00:00:08.436Z,10.23
2022-11-10T00:02:53.900Z,10.25
2022-11-10T00:05:39.598Z,10.34
2022-11-10T00:08:25.377Z,10.38
2022-11-10T00:11:10.868Z,10.40
2022-11-10T00:14:14.814Z,10.26
2022-11-10T00:17:06.722Z,10.32
2022-11-10T00:19:52.385Z,10.30
2022-11-10T00:22:39.640Z,10.33
2022-11-10T00:25:27.059Z,10.34
2022-11-10T00:28:12.879Z,10.26
2022-11-10T00:30:59.339Z,10.30
2022-11-10T00:33:45.106Z,10.29
2022-11-10T00:36:30.760Z,10.27
2022-11-10T00:39:16.248Z,10.32
2022-11-10T00:42:02.109Z,10.28
2022-11-10T00:44:47.664Z,10.36
2022-11-10T00:47:33.267Z,10.22
2022-11-10T00:50:19.473Z,10.23
2022-11-10T00:53:05.398Z,10.23
2022-11-10T00:55:51.127Z,10.23
2022-11-10T00:58:36.880Z,10.27
2022-11-10T01:01:24.909Z,10.22
2022-11-10T01:04:10.611Z,10.38
2022-11-10T01:06:55.976Z,10.34
2022-11-10T01:09:41.528Z,10.17
2022-11-10T01:12:31.126Z,10.18
2022-11-10T01:15:16.969Z,10.17
2022-11-10T01:18:02.565Z,10.24
2022-11-10T01:20:52.821Z,10.21
2022-11-10T01:23:38.728Z,10.05
2022-11-10T01:26:25.068Z,10.13
2022-11-10T01:29:10.863Z,10.25
2022-11-10T01:31:56.117Z,10.20
2022-11-10T01:34:41.522Z,10.05
2022-11-10T01:37:27.515Z,10.05
2022-11-10T01:40:13.883Z,10.14
2022-11-10T01:43:00.023Z,10.16
2022-11-10T01:45:56.753Z,10.16
2022-11-10T01:48:54.087Z,10.15
2022-11-10T01:52:02.173Z,10.11
2022-11-10T01:54:50.038Z,10.06
2022-11-10T01:57:37.190Z,10.20
2022-11-10T02:00:23.170Z,10.19
2022-11-10T02:03:32.292Z,10.08
2022-11-10T02:06:21.041Z,10.13
2022-11-10T02:09:07.165Z,10.11
2022-11-10T02:11:55.592Z,10.21
2022-11-10T02:14:42.385Z,10.09
2022-11-10T02:17:27.961Z,9.99
2022-11-10T02:20:17.850Z,10.00
2022-11-10T02:23:15.024Z,10.13
2022-11-10T02:26:01.517Z,10.10
2022-11-10T02:28:47.226Z,10.07
2022-11-10T02:31:32.485Z,9.96
2022-11-10T02:34:18.309Z,10.05
2022-11-10T02:37:03.873Z,9.88
2022-11-10T02:39:49.368Z,9.98
2022-11-10T02:42:35.133Z,9.94
2022-11-10T02:45:20.462Z,9.98
2022-11-10T02:48:06.101Z,9.97
2022-11-10T02:50:51.557Z,9.84
2022-11-10T02:53:36.992Z,9.93
2022-11-10T02:56:22.687Z,10.03
2022-11-10T02:59:08.042Z,10.03
2022-11-10T03:01:53.705Z,10.00
2022-11-10T03:04:39.119Z,9.93
2022-11-10T03:07:24.540Z,9.91
2022-11-10T03:10:10.175Z,10.02
2022-11-10T03:13:00.378Z,10.01
2022-11-10T03:15:47.959Z,9.99
2022-11-10T03:18:33.607Z,9.88
2022-11-10T03:21:19.126Z,9.90
2022-11-10T03:24:05.260Z,9.89
2022-11-10T03:26:51.237Z,9.79
2022-11-10T03:29:36.914Z,9.85
2022-11-10T03:32:22.460Z,9.78
2022-11-10T03:35:08.647Z,9.94
2022-11-10T03:37:54.860Z,9.90
2022-11-10T03:41:12.059Z,9.89
2022-11-10T03:43:46.139Z,9.82
2022-11-10T03:46:32.015Z,9.78
2022-11-10T03:49:17.325Z,9.76
2022-11-10T03:52:02.801Z,9.82
2022-11-10T03:54:48.512Z,9.92
2022-11-10T03:57:34.433Z,9.96
2022-11-10T04:00:20.368Z,9.83
2022-11-10T04:03:05.638Z,9.73
2022-11-10T04:06:10.176Z,9.73
2022-11-10T04:09:02.006Z,9.72
2022-11-10T04:12:06.154Z,9.72
2022-11-10T04:15:10.773Z,9.70
2022-11-10T04:18:16.578Z,9.75
2022-11-10T04:21:03.523Z,9.54
2022-11-10T04:23:49.573Z,9.62
2022-11-10T04:26:38.954Z,9.64
2022-11-10T04:29:24.315Z,9.62
2022-11-10T04:32:09.704Z,9.41
2022-11-10T04:34:55.047Z,9.52
2022-11-10T04:37:40.369Z,9.45
2022-11-10T04:40:26.142Z,9.47
2022-11-10T04:43:11.666Z,9.52
2022-11-10T04:45:58.011Z,9.52
2022-11-10T04:48:43.617Z,9.49
2022-11-10T04:51:32.594Z,9.58
2022-11-10T04:54:18.313Z,9.45
2022-11-10T04:57:03.700Z,9.48
2022-11-10T04:59:49.147Z,9.45
2022-11-10T05:02:39.361Z,9.53
2022-11-10T05:05:25.078Z,9.49
2022-11-10T05:08:10.989Z,9.47
2022-11-10T05:10:56.431Z,9.51
2022-11-10T05:13:42.543Z,9.46
2022-11-10T05:16:28.155Z,9.44
2022-11-10T05:19:13.828Z,9.56
2022-11-10T05:21:59.543Z,9.41
2022-11-10T05:24:44.871Z,9.47
2022-11-10T05:27:30.561Z,9.50
2022-11-10T05:30:16.309Z,9.49
2022-11-10T05:33:02.644Z,9.30
2022-11-10T05:35:50.135Z,9.29
2022-11-10T05:38:40.246Z,9.40
2022-11-10T05:41:27.696Z,9.43
2022-11-10T05:44:13.117Z,9.32
2022-11-10T05:46:58.497Z,9.31
2022-11-10T05:49:44.302Z,9.17
2022-11-10T05:52:30.788Z,9.26
2022-11-10T05:55:17.678Z,9.32
2022-11-10T05:58:03.622Z,9.28
2022-11-10T06:00:49.110Z,9.14
2022-11-10T06:03:35.175Z,9.20
2022-11-10T06:06:20.963Z,9.23
2022-11-10T06:09:06.252Z,9.22
2022-11-10T06:11:51.390Z,9.21
2022-11-10T06:14:36.768Z,9.31
2022-11-10T06:17:22.069Z,9.27
2022-11-10T06:20:08.880Z,9.28
2022-11-10T06:23:06.055Z,9.25
2022-11-10T06:25:51.428Z,9.17
2022-11-10T06:28:36.837Z,9.20
2022-11-10T06:31:22.402Z,9.31
2022-11-10T06:34:08.503Z,9.23
2022-11-10T06:36:53.985Z,9.07
2022-11-10T06:39:40.107Z,9.02
2022-11-10T06:42:25.934Z,9.02
2022-11-10T06:45:11.085Z,9.16
2022-11-10T06:48:04.702Z,9.06
2022-11-10T06:50:50.123Z,9.07
2022-11-10T06:53:35.457Z,9.08
2022-11-10T06:56:20.977Z,9.12
2022-11-10T06:59:06.452Z,9.11
2022-11-10T07:01:51.932Z,9.27
2022-11-10T07:04:37.614Z,9.19
2022-11-10T07:07:22.981Z,9.32
2022-11-10T07:10:08.856Z,9.31
2022-11-10T07:13:02.402Z,9.26
2022-11-10T07:15:47.591Z,9.24
2022-11-10T07:18:33.167Z,9.01
2022-11-10T07:21:18.601Z,9.15
2022-11-10T07:24:04.094Z,9.32
2022-11-10T07:26:49.426Z,9.38
2022-11-10T07:29:34.680Z,9.54
2022-11-10T07:32:20.232Z,9.58
2022-11-10T07:35:06.024Z,9.59
2022-11-10T07:37:51.521Z,9.45
2022-11-10T07:40:37.087Z,9.49
2022-11-10T07:43:24.815Z,9.44
2022-11-10T07:46:10.757Z,9.51
2022-11-10T07:48:56.025Z,9.47
2022-11-10T07:51:43.164Z,9.43
2022-11-10T07:54:28.809Z,9.21
2022-11-10T07:57:14.562Z,9.21
2022-11-10T08:00:00.242Z,9.34
2022-11-10T08:02:45.905Z,9.34
2022-11-10T08:05:32.346Z,9.30
2022-11-10T08:08:18.873Z,9.38
2022-11-10T08:11:03.915Z,9.41
2022-11-10T08:13:49.300Z,9.53
2022-11-10T08:16:34.843Z,9.52
2022-11-10T08:19:20.432Z,9.57
2022-11-10T08:22:05.805Z,9.70
2022-11-10T08:24:50.983Z,9.56
2022-11-10T08:27:36.444Z,9.66
2022-11-10T08:30:21.878Z,9.53
2022-11-10T08:33:09.275Z,9.73
2022-11-10T08:35:54.699Z,9.78
2022-11-10T08:38:40.167Z,9.82
2022-11-10T08:41:25.445Z,9.84
2022-11-10T08:44:11.277Z,9.91
2022-11-10T08:46:57.058Z,9.84
2022-11-10T08:49:42.693Z,9.96
2022-11-10T08:52:27.930Z,9.87
2022-11-10T08:55:13.482Z,10.03
2022-11-10T08:58:02.335Z,9.84
2022-11-10T09:00:48.197Z,9.67
2022-11-10T09:03:33.428Z,9.68
2022-11-10T09:06:18.627Z,9.74
2022-11-10T09:09:03.906Z,9.87
2022-11-10T09:11:49.771Z,9.91
2022-11-10T09:14:35.055Z,9.82
2022-11-10T09:17:20.899Z,9.80
2022-11-10T09:20:07.733Z,9.77
2022-11-10T09:22:53.750Z,9.94
2022-11-10T09:25:40.463Z,9.94
2022-11-10T09:28:26.069Z,9.85
2022-11-10T09:31:12.201Z,9.96
2022-11-10T09:33:59.384Z,9.96
2022-11-10T09:36:45.110Z,10.02
2022-11-10T09:39:31.790Z,10.06
2022-11-10T09:42:25.255Z,10.15
2022-11-10T09:45:25.244Z,10.29
2022-11-10T09:48:41.851Z,10.33
2022-11-10T09:51:36.160Z,10.31
2022-11-10T09:54:40.505Z,10.24
2022-11-10T09:57:27.419Z,10.16
2022-11-10T10:00:17.525Z,10.19
2022-11-10T10:03:06.436Z,10.22
2022-11-10T10:06:16.045Z,10.20
2022-11-10T10:09:20.177Z,10.17
2022-11-10T10:12:23.243Z,10.25
2022-11-10T10:15:25.698Z,10.30
2022-11-10T10:18:17.272Z,10.33
2022-11-10T10:21:25.025Z,10.28
2022-11-10T10:24:21.865Z,10.43
2022-11-10T10:27:15.782Z,10.28
2022-11-10T10:30:02.152Z,10.23
2022-11-10T10:32:47.548Z,10.15
2022-11-10T10:35:37.669Z,10.03
2022-11-10T10:38:39.353Z,10.05
2022-11-10T10:41:31.302Z,10.19
2022-11-10T10:44:18.915Z,10.27
2022-11-10T10:47:04.897Z,10.44
2022-11-10T10:49:50.547Z,10.39
2022-11-10T10:52:36.157Z,10.40
2022-11-10T10:55:27.568Z,10.18
2022-11-10T10:58:25.596Z,10.24
2022-11-10T11:01:14.538Z,10.19
2022-11-10T11:04:04.900Z,10.25
2022-11-10T11:06:58.382Z,10.38
2022-11-10T11:09:44.687Z,10.21
2022-11-10T11:12:34.424Z,10.33
2022-11-10T11:15:30.561Z,10.34
2022-11-10T11:18:20.898Z,10.31
2022-11-10T11:21:33.873Z,10.35
2022-11-10T11:24:34.207Z,10.16
2022-11-10T11:27:47.017Z,10.19
2022-11-10T11:30:47.539Z,10.24
2022-11-10T11:33:35.555Z,10.27
2022-11-10T11:36:35.832Z,10.21
2022-11-10T11:39:40.647Z,10.17
2022-11-10T11:42:47.251Z,10.09
2022-11-10T11:45:41.032Z,10.09
2022-11-10T11:48:46.091Z,10.14
2022-11-10T11:52:02.086Z,10.18
2022-11-10T11:54:53.162Z,10.17
2022-11-10T11:58:07.772Z,10.07
2022-11-10T12:01:07.881Z,10.04
2022-11-10T12:04:30.001Z,9.99
2022-11-10T12:07:36.185Z,10.14
2022-11-10T12:10:55.235Z,10.17
2022-11-10T12:13:43.706Z,10.09
2022-11-10T12:16:39.931Z,9.80
2022-11-10T12:19:43.478Z,9.89
2022-11-10T12:22:43.800Z,9.88
2022-11-10T12:25:38.818Z,9.89
2022-11-10T12:28:31.374Z,10.07
2022-11-10T12:31:21.079Z,9.93
2022-11-10T12:34:24.840Z,9.93
2022-11-10T12:37:22.317Z,9.86
2022-11-10T12:40:16.764Z,9.79
2022-11-10T12:43:06.739Z,9.69
2022-11-10T12:46:00.577Z,9.79
2022-11-10T12:49:00.976Z,9.76
2022-11-10T12:52:15.716Z,9.74
2022-11-10T12:55:01.048Z,9.83
2022-11-10T12:57:47.110Z,9.84
2022-11-10T13:00:40.173Z,9.78
2022-11-10T13:03:29.160Z,9.70
2022-11-10T13:06:37.594Z,9.72
2022-11-10T13:09:37.882Z,9.64
2022-11-10T13:12:25.104Z,9.70
2022-11-10T13:15:38.063Z,9.71
2022-11-10T13:18:49.370Z,9.74
2022-11-10T13:21:52.604Z,9.77
2022-11-10T13:24:40.753Z,9.82
2022-11-10T13:27:38.100Z,9.79
2022-11-10T13:30:46.376Z,9.73
2022-11-10T13:33:36.043Z,9.79
2022-11-10T13:36:45.973Z,9.77
2022-11-10T13:39:34.544Z,9.78
2022-11-10T13:42:25.311Z,9.87
2022-11-10T13:45:33.034Z,9.96
2022-11-10T13:48:18.605Z,9.98
2022-11-10T13:51:50.817Z,9.88
2022-11-10T13:54:58.008Z,9.78
2022-11-10T13:58:00.328Z,9.84
2022-11-10T14:01:09.212Z,9.84
2022-11-10T14:04:02.028Z,9.93
2022-11-10T14:06:52.238Z,9.82
2022-11-10T14:09:40.042Z,9.81
2022-11-10T14:12:35.684Z,9.76
2022-11-10T14:15:25.799Z,9.82
2022-11-10T14:18:30.429Z,9.77
2022-11-10T14:21:27.860Z,9.74
2022-11-10T14:24:20.404Z,9.78
2022-11-10T14:27:09.215Z,9.76
2022-11-10T14:30:29.001Z,9.62
2022-11-10T14:33:15.310Z,9.66
2022-11-10T14:36:02.175Z,9.70
2022-11-10T14:38:48.068Z,9.64
2022-11-10T14:41:34.040Z,9.73
2022-11-10T14:44:27.139Z,9.69
2022-11-10T14:47:15.891Z,9.63
2022-11-10T14:50:08.710Z,9.56
2022-11-10T14:53:01.836Z,9.63
2022-11-10T14:55:54.414Z,9.64
2022-11-10T14:58:43.258Z,9.60
2022-11-10T15:01:38.946Z,9.57
2022-11-10T15:04:30.848Z,9.63
2022-11-10T15:07:17.036Z,9.62
2022-11-10T15:10:18.749Z,9.63
2022-11-10T15:13:19.803Z,9.62
2022-11-10T15:16:27.626Z,9.60
2022-11-10T15:19:31.505Z,9.64
2022-11-10T15:22:38.291Z,9.73
2022-11-10T15:25:32.821Z,9.74
2022-11-10T15:28:31.547Z,9.64
2022-11-10T15:31:27.288Z,9.61
2022-11-10T15:34:31.111Z,9.79
2022-11-10T15:37:32.050Z,9.84
2022-11-10T15:40:45.144Z,9.79
2022-11-10T15:43:30.546Z,9.63
2022-11-10T15:46:19.865Z,9.64
2022-11-10T15:49:12.955Z,9.64
2022-11-10T15:52:05.581Z,9.58
2022-11-10T15:54:51.877Z,9.53
2022-11-10T15:57:38.571Z,9.64
2022-11-10T16:00:26.055Z,9.52
2022-11-10T16:03:18.724Z,9.64
2022-11-10T16:06:04.627Z,9.62
2022-11-10T16:08:50.790Z,9.61
2022-11-10T16:11:36.635Z,9.46
2022-11-10T16:14:22.741Z,9.48
2022-11-10T16:17:11.117Z,9.44
2022-11-10T16:19:57.050Z,9.43
2022-11-10T16:22:42.551Z,9.42
2022-11-10T16:25:28.363Z,9.39
2022-11-10T16:28:22.397Z,9.44
2022-11-10T16:31:12.503Z,9.47
2022-11-10T16:33:58.290Z,9.42
2022-11-10T16:36:46.295Z,9.49
2022-11-10T16:39:32.226Z,9.52
2022-11-10T16:42:17.735Z,9.54
2022-11-10T16:45:03.887Z,9.60
2022-11-10T16:47:53.256Z,9.56
2022-11-10T16:50:38.879Z,9.33
2022-11-10T16:53:33.095Z,9.50
2022-11-10T16:56:20.762Z,9.60
2022-11-10T16:59:06.152Z,9.47
2022-11-10T17:01:53.342Z,9.54
2022-11-10T17:04:39.012Z,9.43
2022-11-10T17:07:26.421Z,9.50
2022-11-10T17:10:16.582Z,9.52
2022-11-10T17:13:02.315Z,9.55
2022-11-10T17:15:49.229Z,9.56
2022-11-10T17:18:35.847Z,9.42
2022-11-10T17:21:22.666Z,9.41
2022-11-10T17:24:11.186Z,9.45
2022-11-10T17:26:57.103Z,9.24
2022-11-10T17:29:42.947Z,9.29
2022-11-10T17:32:57.873Z,9.47
2022-11-10T17:35:50.344Z,9.43
2022-11-10T17:38:36.564Z,9.50
2022-11-10T17:41:22.366Z,9.49
2022-11-10T17:44:15.889Z,9.53
2022-11-10T17:47:01.508Z,9.57
2022-11-10T17:49:47.104Z,9.54
2022-11-10T17:52:32.734Z,9.50
2022-11-10T17:55:19.964Z,9.52
2022-11-10T17:58:05.684Z,9.50
2022-11-10T18:00:51.132Z,9.54
2022-11-10T18:03:36.605Z,9.57
2022-11-10T18:06:22.149Z,9.47
2022-11-10T18:09:07.749Z,9.30
2022-11-10T18:11:54.983Z,9.27
2022-11-10T18:14:40.503Z,9.17
2022-11-10T18:17:26.236Z,9.22
2022-11-10T18:20:13.555Z,9.26
2022-11-10T18:23:00.194Z,9.31
2022-11-10T18:25:47.172Z,9.29
2022-11-10T18:28:33.980Z,9.40
2022-11-10T18:31:19.614Z,9.34
2022-11-10T18:34:05.202Z,9.34
2022-11-10T18:36:52.362Z,9.35
2022-11-10T18:39:38.022Z,9.33
2022-11-10T18:42:23.553Z,9.22
2022-11-10T18:45:09.533Z,9.21
2022-11-10T18:48:01.232Z,9.16
2022-11-10T18:50:47.056Z,9.11
2022-11-10T18:53:37.889Z,9.12
2022-11-10T18:56:25.682Z,9.01
2022-11-10T18:59:11.489Z,9.01
2022-11-10T19:01:57.123Z,9.06
2022-11-10T19:04:43.048Z,9.13
2022-11-10T19:07:30.991Z,9.07
2022-11-10T19:10:16.995Z,8.98
2022-11-10T19:13:02.622Z,9.03
2022-11-10T19:15:48.702Z,8.94
2022-11-10T19:18:35.419Z,8.86
2022-11-10T19:21:24.161Z,8.86
2022-11-10T19:24:09.770Z,8.98
2022-11-10T19:26:55.430Z,8.84
2022-11-10T19:29:40.958Z,8.97
2022-11-10T19:32:27.143Z,8.97
2022-11-10T19:35:13.665Z,8.83
2022-11-10T19:37:59.089Z,8.92
2022-11-10T19:40:45.374Z,8.78
2022-11-10T19:43:31.690Z,8.77
2022-11-10T19:46:20.813Z,8.95
2022-11-10T19:49:06.559Z,9.02
2022-11-10T19:51:52.632Z,8.99
2022-11-10T19:54:38.429Z,9.05
2022-11-10T19:57:24.166Z,9.02
2022-11-10T20:00:12.588Z,9.13
2022-11-10T20:02:58.131Z,9.06
2022-11-10T20:05:46.405Z,9.07
2022-11-10T20:08:32.668Z,9.11
2022-11-10T20:11:22.157Z,9.11
2022-11-10T20:14:07.777Z,9.02
2022-11-10T20:16:53.664Z,8.99
2022-11-10T20:19:41.064Z,8.84
2022-11-10T20:22:27.121Z,9.02
2022-11-10T20:25:12.616Z,9.11
2022-11-10T20:28:01.422Z,9.12
2022-11-10T20:30:46.863Z,9.04
2022-11-10T20:33:33.354Z,9.03
2022-11-10T20:36:22.050Z,9.03
2022-11-10T20:39:07.829Z,9.06
2022-11-10T20:41:53.571Z,9.08
2022-11-10T20:44:39.511Z,8.97
2022-11-10T20:47:27.558Z,9.05
2022-11-10T20:50:17.125Z,9.11
2022-11-10T20:53:06.017Z,9.18
2022-11-10T20:55:59.659Z,9.20
2022-11-10T20:58:45.390Z,9.03
2022-11-10T21:01:32.623Z,9.17
2022-11-10T21:04:18.677Z,9.19
2022-11-10T21:07:04.581Z,9.23
2022-11-10T21:09:50.075Z,9.24
2022-11-10T21:12:50.979Z,9.19
2022-11-10T21:15:40.441Z,9.17
2022-11-10T21:18:31.882Z,9.20
2022-11-10T21:21:24.026Z,9.23
2022-11-10T21:24:10.401Z,9.25
2022-11-10T21:26:57.615Z,9.21
2022-11-10T21:29:43.104Z,9.18
2022-11-10T21:32:31.112Z,9.22
2022-11-10T21:35:17.669Z,9.34
2022-11-10T21:38:04.785Z,9.21
2022-11-10T21:40:50.500Z,9.29
2022-11-10T21:43:36.112Z,9.37
2022-11-10T21:46:21.580Z,9.34
2022-11-10T21:49:08.086Z,9.32
2022-11-10T21:51:53.998Z,9.27
2022-11-10T21:54:39.504Z,9.37
2022-11-10T21:57:25.429Z,9.27
2022-11-10T22:00:12.147Z,9.28
2022-11-10T22:03:02.412Z,9.26
2022-11-10T22:05:47.888Z,9.21
2022-11-10T22:08:35.167Z,9.22
2022-11-10T22:11:40.147Z,9.19
2022-11-10T22:14:44.666Z,9.13
2022-11-10T22:17:50.345Z,9.05
2022-11-10T22:20:36.242Z,9.02
2022-11-10T22:23:41.683Z,9.00
2022-11-10T22:26:27.653Z,8.96
2022-11-10T22:29:13.168Z,9.00
2022-11-10T22:31:59.907Z,8.96
2022-11-10T22:34:45.407Z,8.91
2022-11-10T22:37:33.236Z,8.90
2022-11-10T22:40:37.845Z,8.98
2022-11-10T22:43:41.876Z,8.95
2022-11-10T22:46:28.120Z,8.92
2022-11-10T22:49:15.904Z,8.96
2022-11-10T22:52:01.897Z,8.87
2022-11-10T22:54:47.371Z,8.83
2022-11-10T22:57:33.038Z,8.91
2022-11-10T23:00:18.435Z,8.86
2022-11-10T23:03:04.181Z,8.87
2022-11-10T23:05:56.284Z,8.84
2022-11-10T23:08:42.234Z,8.91
2022-11-10T23:11:31.684Z,8.85
2022-11-10T23:14:17.362Z,8.89
2022-11-10T23:17:02.538Z,8.89
2022-11-10T23:19:48.002Z,8.75
2022-11-10T23:22:33.394Z,8.78
2022-11-10T23:25:18.802Z,8.73
2022-11-10T23:28:04.560Z,8.74
2022-11-10T23:30:50.659Z,8.82
2022-11-10T23:33:37.860Z,8.75
2022-11-10T23:36:25.660Z,8.75
2022-11-10T23:39:11.167Z,8.77
2022-11-10T23:41:56.913Z,8.78
2022-11-10T23:44:42.636Z,8.85
2022-11-10T23:47:27.789Z,8.75
2022-11-10T23:50:13.792Z,8.79
2022-11-10T23:52:59.352Z,8.86
2022-11-10T23:55:46.212Z,8.77
2022-11-10T23:58:32.739Z,8.83
